KOXD/OXD METAR and TAF weather

Enter ICAO airport designator
Station Type Date Time Source
KOXD METAR 2022/11/27 09:15 UTC NOAA

KOXD 270915Z AUTO 14004KT 7SM RA OVC003 10/09 A2960 RMK AO2 T01000091 P0001


Station Type Date Time Source
KOXD Decoded METAR 2022/11/27 09:15 UTC NOAA

Station name not available
Nov 27, 2022 - 04:15 AM EST / 2022.11.27 0915 UTC
Wind: from the SE (140 degrees) at 5 MPH (4 KT):0
Visibility: 7 mile(s):0
Sky conditions: overcast
Weather: rain
Precipitation last hour: 0.01 inches
Temperature: 50.0 F (10.0 C)
Dew Point: 48.4 F (9.1 C)
Relative Humidity: 94%
Pressure (altimeter): 29.6 in. Hg (1002 hPa)
ob: KOXD 270915Z AUTO 14004KT 7SM RA OVC003 10/09 A2960 RMK AO2 T01000091 P0001
cycle: 9

Station Type Date Time Source
KOXD TAF UTC NOAA

Error!

Example: see airport list